createdAt,value
2023-02-24T00:00:26.055Z,60.07
2023-02-24T00:02:57.126Z,60.07
2023-02-24T00:05:27.651Z,60.23
2023-02-24T00:07:59.886Z,59.92
2023-02-24T00:10:30.905Z,60.13
2023-02-24T00:13:01.482Z,60.56
2023-02-24T00:15:33.174Z,60.64
2023-02-24T00:18:04.031Z,61.10
2023-02-24T00:20:34.756Z,60.94
2023-02-24T00:23:05.186Z,60.67
2023-02-24T00:25:35.898Z,60.67
2023-02-24T00:28:06.412Z,60.45
2023-02-24T00:30:37.058Z,60.40
2023-02-24T00:33:07.895Z,60.40
2023-02-24T00:35:38.934Z,60.11
2023-02-24T00:38:09.933Z,60.43
2023-02-24T00:40:40.266Z,60.35
2023-02-24T00:43:12.808Z,60.35
2023-02-24T00:45:43.560Z,60.64
2023-02-24T00:48:14.602Z,60.70
2023-02-24T00:50:44.996Z,60.52
2023-02-24T00:53:15.305Z,60.52
2023-02-24T00:55:45.422Z,60.50
2023-02-24T00:58:15.667Z,60.65
2023-02-24T01:00:46.475Z,60.59
2023-02-24T01:03:18.316Z,60.83
2023-02-24T01:05:48.864Z,61.13
2023-02-24T01:08:20.892Z,61.20
2023-02-24T01:11:01.325Z,61.30
2023-02-24T01:13:31.984Z,61.30
2023-02-24T01:16:02.478Z,61.48
2023-02-24T01:18:34.548Z,61.84
2023-02-24T01:21:04.853Z,62.02
2023-02-24T01:23:35.853Z,61.97
2023-02-24T01:26:06.628Z,62.04
2023-02-24T01:28:37.670Z,62.11
2023-02-24T01:31:08.629Z,62.10
2023-02-24T01:33:39.590Z,62.10
2023-02-24T01:36:18.785Z,62.01
2023-02-24T01:38:49.779Z,62.06
2023-02-24T01:41:23.240Z,62.06
2023-02-24T01:44:20.029Z,62.13
2023-02-24T01:46:52.876Z,62.33
2023-02-24T01:49:38.130Z,62.64
2023-02-24T01:52:33.332Z,62.64
2023-02-24T01:55:30.404Z,63.49
2023-02-24T01:58:03.594Z,63.63
2023-02-24T02:00:35.012Z,63.76
2023-02-24T02:03:17.038Z,64.12
2023-02-24T02:05:47.664Z,64.12
2023-02-24T02:08:19.993Z,64.71
2023-02-24T02:10:51.605Z,64.71
2023-02-24T02:13:22.644Z,65.21
2023-02-24T02:16:09.018Z,65.21
2023-02-24T02:18:48.413Z,65.80
2023-02-24T02:30:17.652Z,66.40
2023-02-24T02:33:05.593Z,66.40
2023-02-24T02:35:44.213Z,67.18
2023-02-24T02:38:23.528Z,66.98
2023-02-24T02:40:57.041Z,67.39
2023-02-24T02:46:58.807Z,67.38
2023-02-24T02:49:40.870Z,67.52
2023-02-24T02:52:14.778Z,67.75
2023-02-24T02:54:52.183Z,67.75
2023-02-24T02:57:31.963Z,68.82
2023-02-24T03:00:08.079Z,69.27
2023-02-24T03:02:41.658Z,69.42
2023-02-24T03:05:33.860Z,69.64
2023-02-24T03:08:07.068Z,70.09
2023-02-24T03:10:40.019Z,70.09
2023-02-24T03:13:13.298Z,70.53
2023-02-24T03:15:47.658Z,70.21
2023-02-24T03:18:20.980Z,69.91
2023-02-24T03:20:54.837Z,70.00
2023-02-24T03:23:28.688Z,69.88
2023-02-24T03:26:02.019Z,70.00
2023-02-24T03:28:41.428Z,70.23
2023-02-24T03:31:17.450Z,70.24
2023-02-24T03:33:53.499Z,70.23
2023-02-24T03:36:23.817Z,70.25
2023-02-24T03:38:54.605Z,70.64
2023-02-24T03:41:27.780Z,70.64
2023-02-24T03:44:00.306Z,70.37
2023-02-24T03:46:32.231Z,70.50
2023-02-24T03:49:26.000Z,70.67
2023-02-24T03:52:23.102Z,70.69
2023-02-24T03:55:16.820Z,70.78
2023-02-24T04:01:52.640Z,70.60
2023-02-24T04:04:41.391Z,70.28
2023-02-24T04:10:14.098Z,70.08
2023-02-24T04:18:29.978Z,69.60
2023-02-24T04:21:03.662Z,69.52
2023-02-24T04:23:42.751Z,70.32
2023-02-24T04:26:16.286Z,70.40
2023-02-24T04:28:47.528Z,70.66
2023-02-24T04:31:21.005Z,70.88
2023-02-24T04:33:51.693Z,70.45
2023-02-24T04:36:23.088Z,70.45
2023-02-24T04:38:53.639Z,70.30
2023-02-24T04:41:24.206Z,70.15
2023-02-24T04:43:54.641Z,70.39
2023-02-24T04:46:24.938Z,70.15
2023-02-24T04:48:55.269Z,69.85
2023-02-24T04:51:25.703Z,69.90
2023-02-24T04:53:56.237Z,69.90
2023-02-24T04:56:26.690Z,70.13
2023-02-24T04:58:57.271Z,69.90
2023-02-24T05:01:28.293Z,69.62
2023-02-24T05:03:59.055Z,69.54
2023-02-24T05:06:29.947Z,69.13
2023-02-24T05:09:01.555Z,69.17
2023-02-24T05:11:31.869Z,69.17
2023-02-24T05:14:02.507Z,69.50
2023-02-24T05:16:58.402Z,69.77
2023-02-24T05:19:13.322Z,69.78
2023-02-24T05:21:43.813Z,70.12
2023-02-24T05:24:15.460Z,69.75
2023-02-24T05:26:46.806Z,70.37
2023-02-24T05:29:17.236Z,70.37
2023-02-24T05:31:48.192Z,69.72
2023-02-24T05:34:18.689Z,69.47
2023-02-24T05:36:49.060Z,69.88
2023-02-24T05:39:20.968Z,69.51
2023-02-24T05:41:51.861Z,69.51
2023-02-24T05:44:25.592Z,69.51
2023-02-24T05:46:58.808Z,69.51
2023-02-24T05:49:33.292Z,69.17
2023-02-24T05:52:06.508Z,69.63
2023-02-24T05:55:04.124Z,69.73
2023-02-24T05:57:34.666Z,69.47
2023-02-24T06:00:05.622Z,69.47
2023-02-24T06:02:40.816Z,69.37
2023-02-24T06:05:15.231Z,68.50
2023-02-24T06:07:45.705Z,68.50
2023-02-24T06:10:17.041Z,68.62
2023-02-24T06:12:48.384Z,68.41
2023-02-24T06:15:20.577Z,68.41
2023-02-24T06:18:00.920Z,67.17
2023-02-24T06:20:31.738Z,66.96
2023-02-24T06:23:02.214Z,67.71
2023-02-24T06:29:15.027Z,67.77
2023-02-24T06:31:45.958Z,67.91
2023-02-24T06:34:19.363Z,67.91
2023-02-24T06:54:07.375Z,67.07
2023-02-24T06:56:38.833Z,66.32
2023-02-24T06:59:18.204Z,63.40
2023-02-24T07:13:30.826Z,54.30
2023-02-24T07:16:08.615Z,54.34
2023-02-24T07:18:49.104Z,52.99
2023-02-24T07:21:22.317Z,51.15
2023-02-24T07:25:13.260Z,53.92
2023-02-24T07:30:11.748Z,52.23
2023-02-24T07:32:47.818Z,51.15
2023-02-24T07:35:18.185Z,50.39
2023-02-24T07:37:48.647Z,50.50
2023-02-24T07:40:19.758Z,50.06
2023-02-24T07:45:40.158Z,50.52
2023-02-24T07:48:12.614Z,50.32
2023-02-24T07:50:43.043Z,51.64
2023-02-24T07:53:14.910Z,52.22
2023-02-24T07:55:47.542Z,53.17
2023-02-24T07:58:18.453Z,52.14
2023-02-24T08:00:50.769Z,52.14
2023-02-24T08:03:24.362Z,48.92
2023-02-24T08:06:03.170Z,47.95
2023-02-24T08:08:39.126Z,47.95
2023-02-24T08:11:26.353Z,45.44
2023-02-24T08:14:00.923Z,46.12
2023-02-24T08:16:38.614Z,45.91
2023-02-24T08:19:13.966Z,45.91
2023-02-24T08:21:49.366Z,44.87
2023-02-24T08:24:25.406Z,44.01
2023-02-24T08:26:57.757Z,44.01
2023-02-24T08:29:38.461Z,40.91
2023-02-24T08:32:10.560Z,39.91
2023-02-24T08:34:44.837Z,40.20
2023-02-24T08:37:40.226Z,40.01
2023-02-24T08:40:11.801Z,40.57
2023-02-24T08:42:43.675Z,40.57
2023-02-24T08:45:14.089Z,40.03
2023-02-24T08:47:46.576Z,39.56
2023-02-24T08:50:17.670Z,40.81
2023-02-24T08:52:48.686Z,41.00
2023-02-24T08:55:19.289Z,41.00
2023-02-24T08:57:52.510Z,43.88
2023-02-24T09:00:22.941Z,43.94
2023-02-24T09:02:56.274Z,44.91
2023-02-24T09:05:29.735Z,46.04
2023-02-24T09:08:00.777Z,46.09
2023-02-24T09:10:32.496Z,47.31
2023-02-24T09:13:04.616Z,47.31
2023-02-24T09:15:35.179Z,48.31
2023-02-24T09:18:09.367Z,50.64
2023-02-24T09:20:43.271Z,50.96
2023-02-24T09:23:14.724Z,51.63
2023-02-24T09:25:48.591Z,52.98
2023-02-24T09:28:27.897Z,52.98
2023-02-24T09:31:19.941Z,55.27
2023-02-24T09:33:51.826Z,55.33
2023-02-24T09:36:23.271Z,55.33
2023-02-24T09:39:14.733Z,55.16
2023-02-24T09:41:53.344Z,55.10
2023-02-24T09:44:47.271Z,54.89
2023-02-24T09:47:38.504Z,54.97
2023-02-24T09:50:55.155Z,54.66
2023-02-24T09:53:06.323Z,54.66
2023-02-24T09:55:43.219Z,54.44
2023-02-24T09:58:34.761Z,55.16
2023-02-24T10:03:56.733Z,55.66
2023-02-24T10:06:39.040Z,55.75
2023-02-24T10:09:32.143Z,55.43
2023-02-24T10:18:44.039Z,56.76
2023-02-24T10:21:36.896Z,56.76
2023-02-24T10:24:34.972Z,57.77
2023-02-24T10:30:30.502Z,58.04
2023-02-24T10:33:04.204Z,57.20
2023-02-24T10:35:36.218Z,58.27
2023-02-24T10:38:06.691Z,58.79
2023-02-24T10:40:50.550Z,58.79
2023-02-24T10:43:31.614Z,58.22
2023-02-24T10:46:03.908Z,58.96
2023-02-24T10:48:55.545Z,59.69
2023-02-24T10:51:37.311Z,59.69
2023-02-24T10:54:18.581Z,60.11
2023-02-24T10:57:06.425Z,60.63
2023-02-24T11:02:31.076Z,61.41
2023-02-24T11:05:10.262Z,60.56
2023-02-24T11:07:40.631Z,60.56
2023-02-24T11:10:14.170Z,59.93
2023-02-24T11:12:50.269Z,59.93
2023-02-24T11:15:45.128Z,60.45
2023-02-24T11:18:21.624Z,60.67
2023-02-24T11:21:13.934Z,61.02
2023-02-24T11:23:59.705Z,61.23
2023-02-24T11:26:39.737Z,61.09
2023-02-24T11:29:43.089Z,60.15
2023-02-24T11:32:40.920Z,60.93
2023-02-24T11:35:16.968Z,61.13
2023-02-24T11:37:56.074Z,61.13
2023-02-24T11:40:29.470Z,61.35
2023-02-24T11:43:11.682Z,62.00
2023-02-24T11:45:48.316Z,61.79
2023-02-24T11:48:39.730Z,62.32
2023-02-24T11:51:22.437Z,63.38
2023-02-24T11:56:59.762Z,62.41
2023-02-24T11:59:39.813Z,62.41
2023-02-24T12:02:19.704Z,62.13
2023-02-24T12:04:57.572Z,61.43
2023-02-24T12:07:34.109Z,61.53
2023-02-24T12:10:26.702Z,61.07
2023-02-24T12:13:18.309Z,61.52
2023-02-24T12:24:15.765Z,59.70
2023-02-24T12:26:58.335Z,59.33
2023-02-24T12:29:41.106Z,59.69
2023-02-24T12:36:00.110Z,59.65
2023-02-24T12:38:42.413Z,59.65
2023-02-24T12:41:15.957Z,60.46
2023-02-24T12:44:21.671Z,60.37
2023-02-24T12:46:55.223Z,60.20
2023-02-24T12:49:28.535Z,60.20
2023-02-24T12:52:22.418Z,60.58
2023-02-24T12:55:28.265Z,60.33
2023-02-24T12:58:18.449Z,60.33
2023-02-24T13:06:45.434Z,61.36
2023-02-24T13:12:40.251Z,61.87
2023-02-24T13:15:24.729Z,60.28
2023-02-24T13:18:19.632Z,60.27
2023-02-24T13:20:51.433Z,60.53
2023-02-24T13:23:24.095Z,60.53
2023-02-24T13:25:56.677Z,61.48
2023-02-24T13:28:33.489Z,61.48
2023-02-24T13:31:07.448Z,61.70
2023-02-24T13:33:43.519Z,62.02
2023-02-24T13:36:22.064Z,62.02
2023-02-24T13:39:10.801Z,61.63
2023-02-24T13:42:33.716Z,62.09
2023-02-24T13:44:36.090Z,62.66
2023-02-24T13:47:45.468Z,62.05
2023-02-24T13:50:35.319Z,62.05
2023-02-24T13:53:20.967Z,62.04
2023-02-24T13:56:10.703Z,62.65
2023-02-24T14:05:42.757Z,62.01
2023-02-24T14:08:19.547Z,61.97
2023-02-24T14:11:12.195Z,61.96
2023-02-24T14:13:51.298Z,61.96
2023-02-24T14:19:27.092Z,62.21
2023-02-24T14:22:05.309Z,62.21
2023-02-24T14:24:36.744Z,62.30
2023-02-24T14:27:11.560Z,62.30
2023-02-24T14:29:44.379Z,62.82
2023-02-24T14:32:24.895Z,62.74
2023-02-24T14:34:56.204Z,62.59
2023-02-24T14:37:31.172Z,62.98
2023-02-24T14:40:02.316Z,63.29
2023-02-24T14:42:34.830Z,63.29
2023-02-24T14:45:19.742Z,63.40
2023-02-24T14:47:50.299Z,63.40
2023-02-24T14:50:24.093Z,63.29
2023-02-24T14:53:16.369Z,63.29
2023-02-24T14:55:51.827Z,62.64
2023-02-24T14:58:42.064Z,62.66
2023-02-24T15:01:24.246Z,62.79
2023-02-24T15:03:57.555Z,62.93
2023-02-24T15:06:52.781Z,62.80
2023-02-24T15:09:31.863Z,61.89
2023-02-24T15:12:08.498Z,61.89
2023-02-24T15:14:46.158Z,62.20
2023-02-24T15:17:19.693Z,62.04
2023-02-24T15:19:53.873Z,61.73
2023-02-24T15:22:29.969Z,61.87
2023-02-24T15:25:42.302Z,62.47
2023-02-24T15:28:06.094Z,62.80
2023-02-24T15:30:42.397Z,63.62
2023-02-24T15:33:21.901Z,63.62
2023-02-24T15:36:06.878Z,65.57
2023-02-24T15:38:41.019Z,66.05
2023-02-24T15:41:16.287Z,66.05
2023-02-24T15:44:10.221Z,66.83
2023-02-24T15:46:42.972Z,66.83
2023-02-24T15:49:15.728Z,67.00
2023-02-24T15:51:49.354Z,67.25
2023-02-24T15:54:22.197Z,67.47
2023-02-24T15:56:53.068Z,67.47
2023-02-24T15:59:37.470Z,68.26
2023-02-24T16:02:16.792Z,68.42
2023-02-24T16:10:49.327Z,68.91
2023-02-24T16:20:21.003Z,69.95
2023-02-24T16:23:10.784Z,69.69
2023-02-24T16:31:28.815Z,69.49
2023-02-24T16:34:23.824Z,69.27
2023-02-24T16:37:14.944Z,69.33
2023-02-24T16:39:50.097Z,69.28
2023-02-24T16:45:45.079Z,67.29
2023-02-24T16:48:25.734Z,66.68
2023-02-24T16:50:59.343Z,66.68
2023-02-24T16:53:33.000Z,66.11
2023-02-24T16:56:05.419Z,64.89
2023-02-24T16:58:41.729Z,64.89
2023-02-24T17:01:33.207Z,63.98
2023-02-24T17:04:11.888Z,63.98
2023-02-24T17:06:45.396Z,63.10
2023-02-24T17:09:16.047Z,62.38
2023-02-24T17:11:49.981Z,62.66
2023-02-24T17:14:21.696Z,61.89
2023-02-24T17:16:52.810Z,61.54
2023-02-24T17:19:23.508Z,61.54
2023-02-24T17:21:54.475Z,60.90
2023-02-24T17:24:27.694Z,60.52
2023-02-24T17:26:58.703Z,60.87
2023-02-24T17:29:29.120Z,60.06
2023-02-24T17:31:59.702Z,60.55
2023-02-24T17:34:31.199Z,59.73
2023-02-24T17:37:01.880Z,59.44
2023-02-24T17:39:32.326Z,59.73
2023-02-24T17:42:02.698Z,59.28
2023-02-24T17:44:33.412Z,60.32
2023-02-24T17:47:06.134Z,59.96
2023-02-24T17:49:37.454Z,60.36
2023-02-24T17:52:09.677Z,61.31
2023-02-24T17:54:42.758Z,61.59
2023-02-24T17:57:13.736Z,61.41
2023-02-24T17:59:45.588Z,61.41
2023-02-24T18:02:37.456Z,62.04
2023-02-24T18:05:08.938Z,62.41
2023-02-24T18:07:41.515Z,62.02
2023-02-24T18:10:13.216Z,62.25
2023-02-24T18:12:43.851Z,60.92
2023-02-24T18:15:17.857Z,61.44
2023-02-24T18:17:48.515Z,61.59
2023-02-24T18:20:27.160Z,62.59
2023-02-24T18:22:57.643Z,62.98
2023-02-24T18:25:31.011Z,63.22
2023-02-24T18:28:01.512Z,63.48
2023-02-24T18:30:34.408Z,63.33
2023-02-24T18:33:08.324Z,63.33
2023-02-24T18:35:41.919Z,62.87
2023-02-24T18:38:21.330Z,63.09
2023-02-24T18:41:03.655Z,62.38
2023-02-24T18:43:41.044Z,62.38
2023-02-24T18:46:11.206Z,61.83
2023-02-24T18:48:44.320Z,61.56
2023-02-24T18:51:18.012Z,61.56
2023-02-24T18:53:57.003Z,62.25
2023-02-24T18:56:29.912Z,62.25
2023-02-24T18:59:03.561Z,62.98
2023-02-24T19:01:45.702Z,64.35
2023-02-24T19:04:38.127Z,64.35
2023-02-24T19:07:16.049Z,65.29
2023-02-24T19:09:59.021Z,65.29
2023-02-24T19:12:29.379Z,65.37
2023-02-24T19:15:01.860Z,65.92
2023-02-24T19:17:32.818Z,66.40
2023-02-24T19:20:05.324Z,66.40
2023-02-24T19:22:36.131Z,67.43
2023-02-24T19:25:07.211Z,67.43
2023-02-24T19:27:39.161Z,68.24
2023-02-24T19:30:11.561Z,68.24
2023-02-24T19:32:43.162Z,69.33
2023-02-24T19:35:14.606Z,69.33
2023-02-24T19:37:53.224Z,69.79
2023-02-24T19:40:24.715Z,70.78
2023-02-24T19:42:58.614Z,70.78
2023-02-24T19:45:29.561Z,71.81
2023-02-24T19:50:55.640Z,72.15
2023-02-24T19:53:26.130Z,72.35
2023-02-24T19:56:00.293Z,73.56
2023-02-24T19:58:33.626Z,73.56
2023-02-24T20:04:05.326Z,73.80
2023-02-24T20:09:43.526Z,74.69
2023-02-24T20:15:14.629Z,75.54
2023-02-24T20:17:45.693Z,75.53
2023-02-24T20:20:20.215Z,76.62
2023-02-24T20:23:00.938Z,77.08
2023-02-24T20:25:31.634Z,77.08
2023-02-24T20:28:02.991Z,77.89
2023-02-24T20:30:33.520Z,78.26
2023-02-24T20:33:04.054Z,78.47
2023-02-24T20:35:37.997Z,78.64
2023-02-24T20:38:09.102Z,78.94
2023-02-24T20:41:10.278Z,79.46
2023-02-24T20:43:41.787Z,79.12
2023-02-24T20:46:25.008Z,79.69
2023-02-24T20:49:34.361Z,79.63
2023-02-24T20:52:04.822Z,79.52
2023-02-24T20:54:35.504Z,79.37
2023-02-24T20:57:07.311Z,79.37
2023-02-24T20:59:38.946Z,79.76
2023-02-24T21:02:40.130Z,79.76
2023-02-24T21:05:18.980Z,79.56
2023-02-24T21:07:50.345Z,79.98
2023-02-24T21:10:22.132Z,79.88
2023-02-24T21:12:53.844Z,80.40
2023-02-24T21:15:24.222Z,80.00
2023-02-24T21:17:55.323Z,80.34
2023-02-24T21:20:28.933Z,80.34
2023-02-24T21:22:59.764Z,81.48
2023-02-24T21:25:30.347Z,81.48
2023-02-24T21:28:00.920Z,81.45
2023-02-24T21:30:32.062Z,81.96
2023-02-24T21:33:08.818Z,81.96
2023-02-24T21:35:39.160Z,82.70
2023-02-24T21:38:10.611Z,82.70
2023-02-24T21:40:41.590Z,83.20
2023-02-24T21:43:15.571Z,83.20
2023-02-24T21:45:45.768Z,83.06
2023-02-24T21:48:18.660Z,83.50
2023-02-24T21:50:59.803Z,83.05
2023-02-24T21:53:32.165Z,83.61
2023-02-24T21:56:08.762Z,84.43
2023-02-24T21:58:40.916Z,84.43
2023-02-24T22:01:17.020Z,87.22
2023-02-24T22:03:49.111Z,87.92
2023-02-24T22:06:21.724Z,88.61
2023-02-24T22:08:59.514Z,89.74
2023-02-24T22:11:33.237Z,89.74
2023-02-24T22:14:24.569Z,90.92
2023-02-24T22:16:57.374Z,93.45
2023-02-24T22:19:29.018Z,94.58
2023-02-24T22:22:00.108Z,95.77
2023-02-24T22:24:30.543Z,96.89
2023-02-24T22:27:03.924Z,97.73
2023-02-24T22:29:34.653Z,99.19
2023-02-24T22:32:05.345Z,99.32
2023-02-24T22:34:36.880Z,99.88
2023-02-24T22:37:07.809Z,100.00
2023-02-24T22:39:54.700Z,100.00
2023-02-24T22:42:28.775Z,100.00
2023-02-24T22:44:59.219Z,100.00
2023-02-24T22:47:30.179Z,100.00
2023-02-24T22:50:00.722Z,100.00
2023-02-24T22:52:32.165Z,100.00
2023-02-24T22:55:04.440Z,100.00
2023-02-24T22:57:35.733Z,100.00
2023-02-24T23:00:10.785Z,100.00
2023-02-24T23:02:43.340Z,100.00
2023-02-24T23:05:14.638Z,100.00
2023-02-24T23:07:45.691Z,100.00
2023-02-24T23:10:19.544Z,100.00
2023-02-24T23:12:53.552Z,100.00
2023-02-24T23:15:24.838Z,100.00
2023-02-24T23:17:57.518Z,100.00
2023-02-24T23:20:28.114Z,100.00
2023-02-24T23:22:58.555Z,100.00
2023-02-24T23:25:29.139Z,100.00
2023-02-24T23:27:59.686Z,100.00
2023-02-24T23:30:32.043Z,100.00
2023-02-24T23:33:02.512Z,100.00
2023-02-24T23:35:35.058Z,100.00
2023-02-24T23:38:05.647Z,100.00
2023-02-24T23:40:49.972Z,100.00
2023-02-24T23:43:16.480Z,100.00
2023-02-24T23:45:53.679Z,100.00
2023-02-24T23:48:31.154Z,100.00
2023-02-24T23:51:24.977Z,100.00
2023-02-24T23:53:55.812Z,100.00
2023-02-24T23:56:28.059Z,100.00
2023-02-24T23:59:00.325Z,100.00
